createdAt,value
2022-08-24T00:02:05.238Z,24.89
2022-08-24T00:04:34.400Z,24.81
2022-08-24T00:07:04.299Z,24.83
2022-08-24T00:09:32.857Z,24.81
2022-08-24T00:12:02.109Z,24.80
2022-08-24T00:14:30.151Z,24.86
2022-08-24T00:17:00.010Z,24.92
2022-08-24T00:19:28.816Z,25.00
2022-08-24T00:22:06.239Z,25.05
2022-08-24T00:24:34.014Z,25.09
2022-08-24T00:27:03.166Z,25.12
2022-08-24T00:29:31.316Z,25.16
2022-08-24T00:31:59.884Z,25.22
2022-08-24T00:34:29.972Z,25.27
2022-08-24T00:36:58.502Z,25.29
2022-08-24T00:39:27.565Z,25.35
2022-08-24T00:41:56.341Z,25.36
2022-08-24T00:44:24.206Z,25.39
2022-08-24T00:47:52.968Z,25.35
2022-08-24T00:50:38.007Z,25.41
2022-08-24T00:53:13.618Z,25.45
2022-08-24T00:55:57.346Z,25.46
2022-08-24T00:58:37.712Z,25.43
2022-08-24T01:01:09.441Z,25.32
2022-08-24T01:03:38.607Z,25.21
2022-08-24T01:06:07.648Z,25.14
2022-08-24T01:08:35.771Z,25.02
2022-08-24T01:11:15.378Z,24.95
2022-08-24T01:13:48.149Z,24.84
2022-08-24T01:16:38.776Z,24.74
2022-08-24T01:19:37.516Z,24.63
2022-08-24T01:22:36.194Z,24.53
2022-08-24T01:25:05.054Z,24.41
2022-08-24T01:27:34.163Z,24.36
2022-08-24T01:30:09.071Z,24.38
2022-08-24T01:32:39.362Z,24.39
2022-08-24T01:35:09.037Z,24.45
2022-08-24T01:37:37.750Z,24.50
2022-08-24T01:40:12.067Z,24.55
2022-08-24T01:42:40.111Z,24.58
2022-08-24T01:45:08.703Z,24.62
2022-08-24T01:47:36.893Z,24.65
2022-08-24T01:50:08.206Z,24.69
2022-08-24T01:53:03.443Z,24.67
2022-08-24T01:55:28.735Z,24.72
2022-08-24T01:57:58.996Z,24.73
2022-08-24T02:00:28.026Z,24.76
2022-08-24T02:02:57.265Z,24.77
2022-08-24T02:05:26.652Z,24.71
2022-08-24T02:07:55.031Z,24.62
2022-08-24T02:10:28.216Z,24.55
2022-08-24T02:13:00.418Z,24.45
2022-08-24T02:15:40.438Z,24.42
2022-08-24T02:18:15.540Z,24.38
2022-08-24T02:20:45.188Z,24.37
2022-08-24T02:23:14.706Z,24.41
2022-08-24T02:25:44.703Z,24.43
2022-08-24T02:28:13.199Z,24.49
2022-08-24T02:30:41.407Z,24.51
2022-08-24T02:33:09.628Z,24.56
2022-08-24T02:35:37.838Z,24.60
2022-08-24T02:38:05.931Z,24.60
2022-08-24T02:40:36.043Z,24.68
2022-08-24T02:43:04.663Z,24.71
2022-08-24T02:45:47.093Z,24.76
2022-08-24T02:48:18.696Z,24.76
2022-08-24T02:50:51.428Z,24.79
2022-08-24T02:53:22.272Z,24.79
2022-08-24T02:55:51.155Z,24.81
2022-08-24T02:58:20.224Z,24.82
2022-08-24T03:00:50.991Z,24.84
2022-08-24T03:03:21.612Z,24.83
2022-08-24T03:05:49.632Z,24.87
2022-08-24T03:08:18.812Z,24.89
2022-08-24T03:10:48.194Z,24.89
2022-08-24T03:13:18.340Z,24.91
2022-08-24T03:15:46.725Z,24.92
2022-08-24T03:18:16.068Z,24.88
2022-08-24T03:20:44.543Z,24.80
2022-08-24T03:23:14.191Z,24.64
2022-08-24T03:25:42.208Z,24.53
2022-08-24T03:28:11.215Z,24.43
2022-08-24T03:30:42.780Z,24.37
2022-08-24T03:33:15.867Z,24.31
2022-08-24T03:35:44.955Z,24.26
2022-08-24T03:38:17.483Z,24.18
2022-08-24T03:40:47.333Z,24.09
2022-08-24T03:43:35.161Z,24.04
2022-08-24T03:46:07.905Z,23.96
2022-08-24T03:48:40.120Z,23.95
2022-08-24T03:51:13.575Z,23.97
2022-08-24T03:53:42.999Z,23.93
2022-08-24T03:56:13.216Z,23.71
2022-08-24T03:58:42.671Z,23.91
2022-08-24T04:01:12.507Z,24.02
2022-08-24T04:03:44.094Z,24.09
2022-08-24T04:06:19.576Z,24.15
2022-08-24T04:08:47.873Z,24.16
2022-08-24T04:11:24.047Z,24.17
2022-08-24T04:13:57.689Z,24.10
2022-08-24T04:16:27.889Z,24.03
2022-08-24T04:19:05.703Z,23.98
2022-08-24T04:21:37.217Z,23.99
2022-08-24T04:24:09.503Z,23.95
2022-08-24T04:26:45.449Z,23.93
2022-08-24T04:29:18.606Z,23.93
2022-08-24T04:31:51.783Z,23.94
2022-08-24T04:34:19.804Z,23.97
2022-08-24T04:36:48.264Z,24.02
2022-08-24T04:39:17.033Z,24.03
2022-08-24T04:41:54.056Z,24.08
2022-08-24T04:44:22.872Z,24.11
2022-08-24T04:46:51.780Z,24.14
2022-08-24T04:49:20.811Z,24.15
2022-08-24T04:51:48.768Z,24.19
2022-08-24T04:54:17.496Z,24.23
2022-08-24T04:56:53.242Z,24.25
2022-08-24T04:59:22.262Z,24.28
2022-08-24T05:01:52.425Z,24.30
2022-08-24T05:04:21.624Z,24.31
2022-08-24T05:06:53.203Z,24.31
2022-08-24T05:09:26.164Z,24.32
2022-08-24T05:11:55.580Z,24.31
2022-08-24T05:14:28.958Z,24.33
2022-08-24T05:16:57.476Z,24.31
2022-08-24T05:19:25.614Z,24.35
2022-08-24T05:21:54.252Z,24.36
2022-08-24T05:24:24.610Z,24.37
2022-08-24T05:26:53.262Z,24.43
2022-08-24T05:29:22.970Z,24.44
2022-08-24T05:31:51.969Z,24.45
2022-08-24T05:34:20.863Z,24.43
2022-08-24T05:36:49.823Z,24.49
2022-08-24T05:39:31.570Z,24.49
2022-08-24T05:41:59.906Z,24.50
2022-08-24T05:44:31.405Z,24.54
2022-08-24T05:47:03.142Z,24.57
2022-08-24T05:49:34.386Z,24.62
2022-08-24T05:52:04.631Z,24.63
2022-08-24T05:54:35.379Z,24.67
2022-08-24T05:57:06.543Z,24.66
2022-08-24T05:59:52.674Z,24.70
2022-08-24T06:02:21.163Z,24.71
2022-08-24T06:04:49.279Z,24.74
2022-08-24T06:07:18.516Z,24.75
2022-08-24T06:09:54.668Z,24.77
2022-08-24T06:12:23.017Z,24.79
2022-08-24T06:14:52.610Z,24.82
2022-08-24T06:17:24.365Z,24.84
2022-08-24T06:19:53.661Z,24.86
2022-08-24T06:22:21.609Z,24.90
2022-08-24T06:25:09.043Z,24.92
2022-08-24T06:27:58.452Z,24.87
2022-08-24T06:30:31.143Z,24.95
2022-08-24T06:33:01.652Z,25.03
2022-08-24T06:35:42.422Z,25.09
2022-08-24T06:38:13.650Z,25.16
2022-08-24T06:40:43.043Z,25.24
2022-08-24T06:43:13.563Z,25.29
2022-08-24T06:45:49.015Z,25.36
2022-08-24T06:48:19.867Z,25.40
2022-08-24T06:50:48.509Z,25.47
2022-08-24T06:53:17.610Z,25.55
2022-08-24T06:55:54.223Z,25.65
2022-08-24T06:58:23.946Z,25.73
2022-08-24T07:00:52.095Z,25.84
2022-08-24T07:03:22.521Z,25.91
2022-08-24T07:05:58.507Z,25.99
2022-08-24T07:08:42.300Z,26.11
2022-08-24T07:11:18.259Z,26.21
2022-08-24T07:13:50.537Z,26.28
2022-08-24T07:16:20.801Z,26.36
2022-08-24T07:18:54.078Z,26.47
2022-08-24T07:21:23.278Z,26.53
2022-08-24T07:23:57.935Z,26.64
2022-08-24T07:26:29.986Z,26.71
2022-08-24T07:29:06.780Z,26.81
2022-08-24T07:31:42.615Z,26.79
2022-08-24T07:34:22.493Z,26.88
2022-08-24T07:36:53.131Z,26.97
2022-08-24T07:39:21.080Z,27.06
2022-08-24T07:42:11.495Z,27.13
2022-08-24T07:44:39.084Z,27.21
2022-08-24T07:47:34.183Z,27.30
2022-08-24T07:49:57.503Z,27.36
2022-08-24T07:52:28.256Z,27.42
2022-08-24T07:54:57.025Z,27.48
2022-08-24T07:57:26.716Z,27.56
2022-08-24T07:59:56.031Z,27.67
2022-08-24T08:02:25.009Z,27.73
2022-08-24T08:05:04.002Z,27.83
2022-08-24T08:07:32.252Z,27.92
2022-08-24T08:10:02.086Z,27.98
2022-08-24T08:12:30.505Z,28.04
2022-08-24T08:14:58.779Z,28.14
2022-08-24T08:17:27.372Z,28.22
2022-08-24T08:19:56.674Z,28.34
2022-08-24T08:22:43.951Z,28.44
2022-08-24T08:25:32.174Z,28.53
2022-08-24T08:28:12.933Z,28.62
2022-08-24T08:30:54.003Z,28.73
2022-08-24T08:33:22.328Z,28.83
2022-08-24T08:35:53.550Z,28.93
2022-08-24T08:38:22.347Z,29.02
2022-08-24T08:41:18.006Z,29.11
2022-08-24T08:44:34.085Z,29.12
2022-08-24T08:47:22.895Z,29.16
2022-08-24T08:50:06.587Z,29.23
2022-08-24T08:53:18.669Z,29.28
2022-08-24T08:56:05.182Z,29.34
2022-08-24T08:59:08.147Z,29.41
2022-08-24T09:02:26.336Z,29.44
2022-08-24T09:05:29.675Z,29.51
2022-08-24T09:08:33.461Z,29.57
2022-08-24T09:11:21.118Z,29.66
2022-08-24T09:14:22.118Z,29.75
2022-08-24T09:17:17.181Z,29.84
2022-08-24T09:20:10.798Z,29.96
2022-08-24T09:22:44.301Z,30.03
2022-08-24T09:25:35.967Z,30.14
2022-08-24T09:28:33.136Z,30.21
2022-08-24T09:31:11.322Z,30.29
2022-08-24T09:34:17.852Z,30.40
2022-08-24T09:37:40.451Z,30.47
2022-08-24T09:41:00.651Z,30.53
2022-08-24T09:44:33.419Z,30.65
2022-08-24T09:47:46.106Z,30.76
2022-08-24T09:50:26.616Z,30.83
2022-08-24T09:53:19.577Z,30.92
2022-08-24T09:56:24.723Z,31.00
2022-08-24T09:59:02.293Z,31.08
2022-08-24T10:02:04.147Z,31.18
2022-08-24T10:04:50.605Z,31.25
2022-08-24T10:07:45.364Z,31.32
2022-08-24T10:11:04.381Z,31.38
2022-08-24T10:14:02.890Z,31.47
2022-08-24T10:16:43.937Z,31.53
2022-08-24T10:19:37.687Z,31.40
2022-08-24T10:22:17.730Z,31.64
2022-08-24T10:25:24.857Z,31.74
2022-08-24T10:28:10.494Z,31.84
2022-08-24T10:30:44.275Z,31.96
2022-08-24T10:33:28.614Z,32.03
2022-08-24T10:36:36.916Z,32.10
2022-08-24T10:39:43.540Z,32.16
2022-08-24T10:43:14.678Z,32.20
2022-08-24T10:46:19.053Z,32.26
2022-08-24T10:49:35.875Z,32.28
2022-08-24T10:53:00.689Z,32.32
2022-08-24T10:55:33.607Z,32.35
2022-08-24T10:58:19.468Z,32.44
2022-08-24T11:00:47.675Z,32.41
2022-08-24T11:03:28.134Z,32.57
2022-08-24T11:05:58.118Z,32.49
2022-08-24T11:08:34.870Z,32.64
2022-08-24T11:11:23.861Z,32.70
2022-08-24T11:14:09.710Z,32.72
2022-08-24T11:16:45.807Z,32.77
2022-08-24T11:19:33.079Z,32.82
2022-08-24T11:22:27.442Z,32.88
2022-08-24T11:25:26.501Z,32.90
2022-08-24T11:28:12.155Z,32.98
2022-08-24T11:30:41.962Z,32.97
2022-08-24T11:33:31.786Z,33.07
2022-08-24T11:36:02.703Z,33.09
2022-08-24T11:38:34.375Z,32.86
2022-08-24T11:41:23.194Z,33.10
2022-08-24T11:44:37.392Z,33.23
2022-08-24T11:47:13.919Z,33.27
2022-08-24T11:50:02.437Z,33.32
2022-08-24T11:52:48.811Z,33.42
2022-08-24T11:55:51.664Z,33.47
2022-08-24T11:58:38.579Z,33.47
2022-08-24T12:01:22.052Z,33.56
2022-08-24T12:04:03.281Z,33.61
2022-08-24T12:06:45.977Z,33.64
2022-08-24T12:09:51.760Z,33.67
2022-08-24T12:12:41.576Z,33.69
2022-08-24T12:15:24.536Z,33.75
2022-08-24T12:18:11.527Z,33.82
2022-08-24T12:20:43.890Z,33.88
2022-08-24T12:24:06.124Z,33.92
2022-08-24T12:26:38.976Z,33.97
2022-08-24T12:29:31.180Z,34.04
2022-08-24T12:32:14.848Z,34.09
2022-08-24T12:35:04.707Z,34.12
2022-08-24T12:37:52.052Z,34.16
2022-08-24T12:40:32.513Z,34.23
2022-08-24T12:43:15.193Z,34.27
2022-08-24T12:45:45.378Z,34.30
2022-08-24T12:48:36.442Z,34.37
2022-08-24T12:51:19.470Z,34.38
2022-08-24T12:54:33.295Z,34.42
2022-08-24T12:57:54.999Z,34.42
2022-08-24T13:00:32.595Z,34.39
2022-08-24T13:03:23.785Z,34.45
2022-08-24T13:05:58.939Z,34.46
2022-08-24T13:08:46.125Z,34.49
2022-08-24T13:11:24.130Z,34.50
2022-08-24T13:13:54.661Z,34.50
2022-08-24T13:17:04.184Z,34.49
2022-08-24T13:19:38.912Z,34.30
2022-08-24T13:22:09.904Z,34.50
2022-08-24T13:25:15.872Z,34.57
2022-08-24T13:27:44.286Z,34.61
2022-08-24T13:30:30.645Z,34.70
2022-08-24T13:33:12.535Z,34.72
2022-08-24T13:35:40.315Z,34.71
2022-08-24T13:38:34.361Z,34.75
2022-08-24T13:41:28.986Z,34.73
2022-08-24T13:44:22.471Z,34.82
2022-08-24T13:47:04.624Z,34.84
2022-08-24T13:50:05.530Z,34.83
2022-08-24T13:52:51.575Z,34.83
2022-08-24T13:56:16.705Z,34.80
2022-08-24T13:59:37.470Z,34.79
2022-08-24T14:02:11.686Z,34.79
2022-08-24T14:05:22.619Z,34.85
2022-08-24T14:08:04.355Z,34.87
2022-08-24T14:10:42.136Z,34.91
2022-08-24T14:13:58.916Z,34.80
2022-08-24T14:17:25.268Z,34.90
2022-08-24T14:20:31.149Z,34.90
2022-08-24T14:23:24.020Z,34.92
2022-08-24T14:26:34.466Z,34.91
2022-08-24T14:29:20.254Z,34.94
2022-08-24T14:32:08.410Z,34.96
2022-08-24T14:34:58.550Z,34.98
2022-08-24T14:37:50.471Z,34.98
2022-08-24T14:40:37.099Z,34.97
2022-08-24T14:43:30.607Z,34.97
2022-08-24T14:46:23.437Z,34.95
2022-08-24T14:49:21.680Z,34.96
2022-08-24T14:52:22.799Z,34.95
2022-08-24T14:55:02.483Z,34.94
2022-08-24T14:57:40.856Z,35.01
2022-08-24T15:00:20.645Z,35.02
2022-08-24T15:02:55.850Z,35.04
2022-08-24T15:05:37.162Z,35.07
2022-08-24T15:08:26.886Z,35.07
2022-08-24T15:11:22.834Z,35.08
2022-08-24T15:14:05.084Z,35.07
2022-08-24T15:16:53.414Z,35.06
2022-08-24T15:19:41.012Z,35.04
2022-08-24T15:22:38.560Z,35.02
2022-08-24T15:26:02.673Z,35.00
2022-08-24T15:28:37.636Z,35.03
2022-08-24T15:31:26.382Z,35.05
2022-08-24T15:34:01.158Z,35.05
2022-08-24T15:36:34.453Z,35.06
2022-08-24T15:39:05.924Z,35.05
2022-08-24T15:41:41.838Z,35.03
2022-08-24T15:44:24.938Z,35.03
2022-08-24T15:47:26.902Z,35.02
2022-08-24T15:50:08.551Z,34.98
2022-08-24T15:53:00.858Z,34.98
2022-08-24T15:55:48.280Z,34.99
2022-08-24T15:58:32.443Z,34.97
2022-08-24T16:01:46.828Z,34.98
2022-08-24T16:04:46.999Z,34.91
2022-08-24T16:07:26.173Z,34.93
2022-08-24T16:10:10.622Z,34.94
2022-08-24T16:12:40.443Z,34.89
2022-08-24T16:15:19.940Z,34.89
2022-08-24T16:17:55.298Z,34.91
2022-08-24T16:20:26.114Z,34.92
2022-08-24T16:23:14.107Z,34.95
2022-08-24T16:25:50.540Z,34.93
2022-08-24T16:28:22.005Z,34.93
2022-08-24T16:31:03.247Z,34.96
2022-08-24T16:33:43.589Z,34.93
2022-08-24T16:36:19.174Z,34.91
2022-08-24T16:38:51.907Z,34.87
2022-08-24T16:41:24.579Z,34.90
2022-08-24T16:43:53.359Z,34.87
2022-08-24T16:46:24.127Z,34.89
2022-08-24T16:48:54.676Z,34.65
2022-08-24T16:51:25.662Z,34.76
2022-08-24T16:53:54.791Z,34.81
2022-08-24T16:56:23.490Z,34.81
2022-08-24T16:58:51.767Z,34.83
2022-08-24T17:01:20.348Z,34.82
2022-08-24T17:03:49.624Z,34.80
2022-08-24T17:06:19.000Z,34.70
2022-08-24T17:08:47.618Z,34.73
2022-08-24T17:11:16.857Z,34.71
2022-08-24T17:13:51.837Z,34.71
2022-08-24T17:16:22.073Z,34.68
2022-08-24T17:18:51.253Z,34.62
2022-08-24T17:21:19.553Z,34.62
2022-08-24T17:23:47.965Z,34.56
2022-08-24T17:26:20.120Z,34.58
2022-08-24T17:28:52.864Z,34.53
2022-08-24T17:31:25.201Z,34.47
2022-08-24T17:33:53.719Z,34.46
2022-08-24T17:36:25.732Z,34.39
2022-08-24T17:38:59.534Z,34.35
2022-08-24T17:41:28.018Z,34.33
2022-08-24T17:43:57.585Z,34.30
2022-08-24T17:46:28.943Z,34.25
2022-08-24T17:48:59.061Z,34.19
2022-08-24T17:51:30.094Z,34.15
2022-08-24T17:54:00.466Z,34.10
2022-08-24T17:56:41.110Z,34.12
2022-08-24T17:59:19.954Z,34.04
2022-08-24T18:01:51.235Z,34.00
2022-08-24T18:04:22.076Z,33.98
2022-08-24T18:06:50.728Z,33.87
2022-08-24T18:09:46.660Z,33.86
2022-08-24T18:12:21.231Z,33.78
2022-08-24T18:14:53.257Z,33.73
2022-08-24T18:17:29.322Z,33.70
2022-08-24T18:19:58.467Z,33.63
2022-08-24T18:22:27.529Z,33.59
2022-08-24T18:24:56.459Z,33.51
2022-08-24T18:27:30.860Z,33.50
2022-08-24T18:30:05.023Z,33.44
2022-08-24T18:32:37.571Z,33.36
2022-08-24T18:35:08.321Z,33.32
2022-08-24T18:37:36.602Z,33.25
2022-08-24T18:40:06.609Z,33.19
2022-08-24T18:42:35.352Z,33.11
2022-08-24T18:45:07.475Z,33.06
2022-08-24T18:47:36.843Z,33.00
2022-08-24T18:50:08.486Z,32.94
2022-08-24T18:52:42.637Z,32.86
2022-08-24T18:55:11.172Z,32.74
2022-08-24T18:57:40.854Z,32.74
2022-08-24T19:00:10.717Z,32.70
2022-08-24T19:02:40.712Z,32.64
2022-08-24T19:05:21.791Z,32.59
2022-08-24T19:07:55.014Z,32.49
2022-08-24T19:10:32.222Z,32.39
2022-08-24T19:13:06.345Z,32.34
2022-08-24T19:15:39.830Z,32.31
2022-08-24T19:18:12.038Z,32.29
2022-08-24T19:20:49.234Z,32.23
2022-08-24T19:23:31.358Z,32.22
2022-08-24T19:26:01.433Z,32.15
2022-08-24T19:28:30.150Z,32.09
2022-08-24T19:31:03.132Z,32.09
2022-08-24T19:33:41.634Z,32.06
2022-08-24T19:36:10.952Z,32.01
2022-08-24T19:38:39.720Z,31.98
2022-08-24T19:41:12.548Z,31.97
2022-08-24T19:44:00.752Z,31.88
2022-08-24T19:46:28.748Z,31.87
2022-08-24T19:48:58.751Z,31.84
2022-08-24T19:51:27.078Z,31.82
2022-08-24T19:53:55.185Z,31.74
2022-08-24T19:56:23.810Z,31.73
2022-08-24T19:58:57.821Z,31.74
2022-08-24T20:01:36.419Z,31.68
2022-08-24T20:04:06.902Z,31.59
2022-08-24T20:06:40.915Z,31.59
2022-08-24T20:09:10.459Z,31.44
2022-08-24T20:11:39.639Z,31.52
2022-08-24T20:14:08.206Z,31.47
2022-08-24T20:16:42.277Z,31.43
2022-08-24T20:21:41.954Z,31.27
2022-08-24T20:24:11.262Z,31.20
2022-08-24T20:26:45.329Z,31.19
2022-08-24T20:29:14.600Z,31.12
2022-08-24T20:31:45.549Z,31.09
2022-08-24T20:34:13.706Z,31.07
2022-08-24T20:36:48.683Z,31.04
2022-08-24T20:39:20.913Z,30.96
2022-08-24T20:41:48.959Z,30.89
2022-08-24T20:44:17.447Z,30.88
2022-08-24T20:46:46.890Z,30.80
2022-08-24T20:49:16.897Z,30.83
2022-08-24T20:51:45.747Z,30.79
2022-08-24T20:54:14.829Z,30.77
2022-08-24T20:56:44.399Z,30.72
2022-08-24T20:59:15.073Z,30.68
2022-08-24T21:01:43.054Z,30.63
2022-08-24T21:04:11.884Z,30.62
2022-08-24T21:06:44.777Z,30.58
2022-08-24T21:09:14.723Z,30.46
2022-08-24T21:11:48.368Z,30.28
2022-08-24T21:14:18.849Z,30.13
2022-08-24T21:16:49.382Z,29.94
2022-08-24T21:19:18.069Z,29.79
2022-08-24T21:21:48.563Z,29.69
2022-08-24T21:24:19.140Z,29.57
2022-08-24T21:26:48.352Z,29.49
2022-08-24T21:29:16.914Z,29.37
2022-08-24T21:32:05.445Z,29.28
2022-08-24T21:34:43.101Z,29.19
2022-08-24T21:37:17.211Z,29.21
2022-08-24T21:39:50.797Z,29.27
2022-08-24T21:42:21.825Z,29.29
2022-08-24T21:44:51.562Z,29.26
2022-08-24T21:47:24.290Z,29.36
2022-08-24T21:49:52.951Z,29.36
2022-08-24T21:52:23.085Z,29.37
2022-08-24T21:54:52.225Z,29.35
2022-08-24T21:57:20.617Z,29.37
2022-08-24T21:59:49.577Z,29.39
2022-08-24T22:02:20.595Z,29.40
2022-08-24T22:04:56.026Z,29.36
2022-08-24T22:07:26.559Z,29.39
2022-08-24T22:09:55.474Z,29.37
2022-08-24T22:12:24.003Z,29.39
2022-08-24T22:14:53.563Z,29.39
2022-08-24T22:17:23.340Z,29.37
2022-08-24T22:19:51.246Z,29.30
2022-08-24T22:22:19.445Z,29.20
2022-08-24T22:24:50.275Z,29.08
2022-08-24T22:27:18.827Z,28.99
2022-08-24T22:29:51.951Z,28.88
2022-08-24T22:32:20.876Z,28.76
2022-08-24T22:34:48.736Z,28.66
2022-08-24T22:37:17.476Z,28.52
2022-08-24T22:39:46.433Z,28.41
2022-08-24T22:42:14.569Z,28.31
2022-08-24T22:44:43.825Z,28.16
2022-08-24T22:47:13.231Z,28.03
2022-08-24T22:49:44.660Z,27.97
2022-08-24T22:52:15.828Z,27.84
2022-08-24T22:54:44.389Z,27.74
2022-08-24T22:57:13.039Z,27.69
2022-08-24T22:59:45.519Z,27.56
2022-08-24T23:02:17.033Z,27.46
2022-08-24T23:04:50.300Z,27.44
2022-08-24T23:07:19.881Z,27.41
2022-08-24T23:09:49.114Z,27.39
2022-08-24T23:12:23.113Z,27.39
2022-08-24T23:14:52.283Z,27.31
2022-08-24T23:17:22.303Z,27.28
2022-08-24T23:20:06.876Z,27.21
2022-08-24T23:22:40.079Z,27.26
2022-08-24T23:25:11.997Z,27.29
2022-08-24T23:27:41.108Z,27.30
2022-08-24T23:30:14.079Z,27.32
2022-08-24T23:32:44.014Z,27.30
2022-08-24T23:35:13.657Z,27.33
2022-08-24T23:37:42.212Z,27.33
2022-08-24T23:40:10.997Z,27.32
2022-08-24T23:42:40.304Z,27.30
2022-08-24T23:45:11.653Z,27.24
2022-08-24T23:47:41.365Z,27.27
2022-08-24T23:50:11.087Z,27.20
2022-08-24T23:52:41.385Z,27.25
2022-08-24T23:55:21.324Z,27.24
2022-08-24T23:57:52.999Z,27.21
